createdAt,value
2019-05-20T00:01:13.247Z,14.80
2019-05-20T00:03:41.527Z,14.60
2019-05-20T00:06:10.134Z,14.60
2019-05-20T00:08:39.008Z,14.50
2019-05-20T00:11:07.439Z,14.50
2019-05-20T00:13:36.261Z,14.50
2019-05-20T00:16:04.675Z,14.50
2019-05-20T00:18:33.227Z,14.50
2019-05-20T00:21:01.769Z,14.40
2019-05-20T00:23:30.419Z,14.40
2019-05-20T00:25:59.710Z,14.40
2019-05-20T00:28:27.262Z,14.40
2019-05-20T00:30:55.853Z,14.60
2019-05-20T00:33:24.117Z,14.30
2019-05-20T00:35:52.898Z,14.30
2019-05-20T00:38:19.975Z,14.30
2019-05-20T00:40:48.393Z,14.30
2019-05-20T00:43:17.120Z,14.20
2019-05-20T00:45:45.758Z,14.20
2019-05-20T00:48:14.388Z,14.70
2019-05-20T00:50:41.744Z,14.20
2019-05-20T00:53:09.991Z,14.20
2019-05-20T00:55:38.462Z,14.10
2019-05-20T00:58:06.693Z,14.00
2019-05-20T01:00:35.774Z,14.00
2019-05-20T01:03:03.959Z,14.00
2019-05-20T01:05:32.333Z,14.00
2019-05-20T01:08:00.634Z,14.00
2019-05-20T01:10:28.682Z,14.00
2019-05-20T01:12:57.337Z,14.00
2019-05-20T01:15:25.470Z,13.90
2019-05-20T01:17:53.522Z,13.90
2019-05-20T01:20:21.687Z,14.00
2019-05-20T01:22:49.948Z,13.80
2019-05-20T01:25:18.327Z,13.90
2019-05-20T01:27:46.651Z,13.90
2019-05-20T01:30:17.145Z,13.90
2019-05-20T01:32:44.598Z,14.00
2019-05-20T01:35:14.821Z,13.90
2019-05-20T01:37:43.289Z,13.80
2019-05-20T01:40:10.738Z,13.80
2019-05-20T01:42:39.152Z,13.90
2019-05-20T01:45:08.194Z,13.90
2019-05-20T01:47:36.479Z,14.20
2019-05-20T01:50:05.186Z,13.90
2019-05-20T01:52:33.484Z,14.10
2019-05-20T01:55:02.153Z,13.90
2019-05-20T01:57:33.206Z,13.80
2019-05-20T02:00:00.798Z,13.90
2019-05-20T02:02:29.323Z,14.10
2019-05-20T02:05:07.748Z,13.90
2019-05-20T02:07:36.489Z,13.90
2019-05-20T02:10:04.259Z,13.90
2019-05-20T02:12:31.542Z,13.90
2019-05-20T02:15:05.058Z,13.90
2019-05-20T02:17:31.998Z,13.80
2019-05-20T02:20:00.273Z,13.80
2019-05-20T02:22:29.271Z,14.20
2019-05-20T02:24:57.860Z,13.80
2019-05-20T02:27:26.133Z,13.90
2019-05-20T02:29:54.718Z,13.80
2019-05-20T02:32:23.434Z,13.70
2019-05-20T02:34:51.702Z,13.80
2019-05-20T02:37:20.062Z,13.70
2019-05-20T02:39:48.695Z,13.60
2019-05-20T02:42:15.744Z,13.60
2019-05-20T02:44:43.946Z,14.00
2019-05-20T02:47:12.239Z,13.70
2019-05-20T02:49:40.992Z,13.40
2019-05-20T02:52:09.193Z,13.50
2019-05-20T02:54:37.352Z,13.80
2019-05-20T02:57:05.757Z,13.50
2019-05-20T02:59:34.041Z,13.50
2019-05-20T03:02:02.715Z,13.80
2019-05-20T03:04:29.914Z,13.40
2019-05-20T03:06:58.358Z,13.80
2019-05-20T03:09:26.397Z,13.50
2019-05-20T03:11:55.421Z,13.40
2019-05-20T03:14:23.835Z,13.40
2019-05-20T03:16:52.589Z,13.40
2019-05-20T03:19:20.928Z,13.40
2019-05-20T03:21:49.155Z,13.40
2019-05-20T03:24:17.725Z,13.40
2019-05-20T03:26:45.803Z,13.40
2019-05-20T03:29:13.873Z,13.30
2019-05-20T03:31:42.605Z,13.40
2019-05-20T03:34:10.011Z,13.30
2019-05-20T03:36:38.396Z,13.30
2019-05-20T03:39:06.794Z,13.30
2019-05-20T03:41:35.873Z,13.40
2019-05-20T03:44:03.333Z,13.40
2019-05-20T03:46:31.592Z,13.40
2019-05-20T03:48:59.697Z,13.40
2019-05-20T03:51:28.348Z,13.80
2019-05-20T03:53:56.860Z,13.50
2019-05-20T03:56:24.697Z,13.60
2019-05-20T03:58:53.701Z,13.40
2019-05-20T04:01:22.036Z,13.60
2019-05-20T04:03:50.208Z,13.30
2019-05-20T04:06:18.146Z,13.20
2019-05-20T04:08:46.827Z,13.30
2019-05-20T04:11:15.387Z,13.20
2019-05-20T04:13:43.027Z,13.10
2019-05-20T04:16:11.164Z,13.20
2019-05-20T04:18:39.442Z,13.20
2019-05-20T04:21:08.108Z,13.20
2019-05-20T04:23:36.650Z,13.20
2019-05-20T04:26:05.467Z,13.30
2019-05-20T04:28:32.903Z,13.40
2019-05-20T04:31:01.187Z,13.50
2019-05-20T04:33:29.635Z,13.30
2019-05-20T04:35:57.803Z,13.60
2019-05-20T04:38:26.677Z,13.50
2019-05-20T04:40:54.852Z,13.70
2019-05-20T04:43:22.895Z,13.60
2019-05-20T04:45:50.977Z,13.90
2019-05-20T04:48:19.372Z,13.50
2019-05-20T04:50:47.977Z,13.80
2019-05-20T04:53:15.751Z,13.70
2019-05-20T04:55:45.229Z,13.80
2019-05-20T04:58:13.923Z,13.80
2019-05-20T05:00:50.892Z,13.70
2019-05-20T05:03:19.447Z,13.70
2019-05-20T05:05:48.407Z,13.70
2019-05-20T05:08:16.709Z,13.70
2019-05-20T05:10:45.149Z,13.90
2019-05-20T05:13:13.899Z,14.00
2019-05-20T05:15:42.795Z,13.90
2019-05-20T05:18:11.538Z,14.00
2019-05-20T05:20:40.304Z,14.00
2019-05-20T05:23:08.995Z,14.10
2019-05-20T05:25:36.414Z,14.50
2019-05-20T05:28:04.750Z,14.20
2019-05-20T05:30:34.464Z,14.30
2019-05-20T05:33:03.291Z,14.40
2019-05-20T05:35:30.772Z,14.50
2019-05-20T05:37:59.277Z,14.50
2019-05-20T05:40:28.586Z,14.60
2019-05-20T05:42:56.778Z,14.60
2019-05-20T05:45:29.868Z,14.90
2019-05-20T05:47:58.758Z,14.50
2019-05-20T05:50:27.455Z,14.60
2019-05-20T05:52:55.868Z,14.70
2019-05-20T05:55:24.378Z,14.70
2019-05-20T05:57:52.899Z,14.70
2019-05-20T06:00:21.386Z,14.90
2019-05-20T06:02:50.290Z,14.70
2019-05-20T06:05:18.348Z,14.60
2019-05-20T06:07:46.796Z,15.00
2019-05-20T06:10:15.494Z,14.80
2019-05-20T06:12:42.443Z,14.80
2019-05-20T06:15:10.959Z,14.80
2019-05-20T06:17:39.373Z,15.10
2019-05-20T06:20:08.024Z,14.80
2019-05-20T06:22:36.202Z,14.80
2019-05-20T06:25:04.744Z,14.90
2019-05-20T06:27:33.201Z,14.90
2019-05-20T06:30:01.350Z,14.90
2019-05-20T06:32:29.887Z,14.90
2019-05-20T06:34:58.162Z,15.00
2019-05-20T06:37:28.617Z,15.10
2019-05-20T06:39:56.675Z,15.20
2019-05-20T06:42:24.922Z,15.30
2019-05-20T06:44:56.640Z,15.60
2019-05-20T06:47:23.195Z,15.40
2019-05-20T06:49:51.366Z,15.40
2019-05-20T06:52:34.790Z,15.30
2019-05-20T06:54:49.611Z,15.50
2019-05-20T06:57:17.725Z,15.50
2019-05-20T06:59:45.807Z,15.30
2019-05-20T07:02:13.850Z,15.50
2019-05-20T07:04:42.027Z,15.30
2019-05-20T07:07:20.531Z,15.20
2019-05-20T07:09:40.401Z,15.20
2019-05-20T07:12:07.591Z,15.10
2019-05-20T07:14:35.762Z,15.30
2019-05-20T07:17:04.111Z,15.20
2019-05-20T07:19:32.060Z,15.30
2019-05-20T07:22:00.064Z,15.60
2019-05-20T07:24:28.033Z,15.70
2019-05-20T07:26:56.683Z,15.60
2019-05-20T07:29:25.281Z,15.70
2019-05-20T07:31:53.448Z,15.70
2019-05-20T07:34:22.450Z,15.70
2019-05-20T07:37:02.436Z,15.60
2019-05-20T07:39:21.871Z,15.50
2019-05-20T07:41:49.405Z,15.50
2019-05-20T07:44:17.551Z,15.60
2019-05-20T07:46:45.970Z,15.40
2019-05-20T07:49:14.703Z,15.90
2019-05-20T07:51:44.002Z,15.60
2019-05-20T07:54:14.391Z,15.80
2019-05-20T07:56:45.955Z,15.90
2019-05-20T07:59:16.534Z,16.00
2019-05-20T08:01:44.092Z,16.10
2019-05-20T08:04:12.631Z,16.40
2019-05-20T08:06:40.913Z,16.10
2019-05-20T08:09:09.439Z,15.90
2019-05-20T08:11:37.998Z,15.90
2019-05-20T08:14:05.495Z,16.00
2019-05-20T08:16:33.550Z,16.30
2019-05-20T08:19:01.822Z,16.10
2019-05-20T08:21:29.901Z,16.20
2019-05-20T08:23:58.140Z,16.00
2019-05-20T08:26:26.397Z,16.10
2019-05-20T08:28:54.574Z,16.50
2019-05-20T08:31:23.049Z,16.30
2019-05-20T08:33:51.238Z,16.50
2019-05-20T08:36:19.280Z,16.40
2019-05-20T08:38:47.223Z,16.40
2019-05-20T08:41:15.164Z,16.30
2019-05-20T08:43:43.407Z,16.50
2019-05-20T08:46:11.494Z,16.40
2019-05-20T08:48:39.685Z,16.20
2019-05-20T08:51:07.749Z,16.10
2019-05-20T08:53:35.693Z,16.20
2019-05-20T08:56:03.863Z,16.30
2019-05-20T08:58:32.109Z,16.30
2019-05-20T09:01:00.168Z,16.30
2019-05-20T09:03:30.446Z,16.40
2019-05-20T09:05:58.365Z,16.50
2019-05-20T09:08:26.867Z,16.40
2019-05-20T09:10:55.015Z,16.50
2019-05-20T09:13:23.091Z,16.20
2019-05-20T09:15:51.358Z,16.30
2019-05-20T09:18:19.435Z,16.40
2019-05-20T09:20:47.579Z,16.40
2019-05-20T09:23:15.812Z,16.60
2019-05-20T09:25:42.755Z,16.50
2019-05-20T09:28:10.774Z,16.80
2019-05-20T09:30:39.042Z,16.60
2019-05-20T09:33:07.078Z,16.70
2019-05-20T09:35:35.210Z,17.10
2019-05-20T09:38:17.816Z,16.80
2019-05-20T09:40:35.889Z,17.00
2019-05-20T09:43:04.543Z,16.70
2019-05-20T09:45:32.792Z,16.70
2019-05-20T09:48:00.947Z,16.70
2019-05-20T09:50:28.920Z,16.80
2019-05-20T09:52:56.962Z,16.80
2019-05-20T09:55:25.202Z,16.60
2019-05-20T09:57:53.263Z,16.70
2019-05-20T10:00:21.540Z,16.60
2019-05-20T10:02:49.711Z,16.60
2019-05-20T10:05:17.970Z,16.70
2019-05-20T10:07:46.042Z,16.90
2019-05-20T10:10:14.403Z,16.90
2019-05-20T10:12:46.454Z,17.00
2019-05-20T10:15:12.695Z,17.20
2019-05-20T10:17:40.642Z,17.20
2019-05-20T10:20:10.106Z,17.00
2019-05-20T10:22:37.518Z,17.00
2019-05-20T10:25:06.751Z,17.10
2019-05-20T10:27:34.235Z,17.10
2019-05-20T10:30:02.679Z,17.20
2019-05-20T10:32:31.156Z,17.10
2019-05-20T10:34:58.320Z,17.20
2019-05-20T10:37:26.596Z,17.10
2019-05-20T10:39:54.646Z,17.20
2019-05-20T10:42:23.320Z,17.10
2019-05-20T10:44:50.677Z,17.40
2019-05-20T10:47:19.177Z,17.10
2019-05-20T10:49:48.059Z,17.00
2019-05-20T10:52:16.371Z,17.00
2019-05-20T10:54:44.640Z,17.10
2019-05-20T10:57:12.914Z,17.10
2019-05-20T10:59:41.689Z,17.10
2019-05-20T11:02:09.861Z,17.20
2019-05-20T11:04:37.144Z,17.30
2019-05-20T11:07:05.450Z,17.30
2019-05-20T11:09:33.760Z,17.50
2019-05-20T11:12:02.100Z,17.50
2019-05-20T11:14:30.488Z,17.70
2019-05-20T11:16:58.555Z,17.70
2019-05-20T11:19:26.984Z,17.90
2019-05-20T11:21:55.115Z,17.90
2019-05-20T11:24:23.583Z,17.90
2019-05-20T11:26:51.647Z,17.80
2019-05-20T11:29:20.344Z,17.90
2019-05-20T11:31:48.811Z,18.10
2019-05-20T11:34:17.408Z,18.30
2019-05-20T11:36:44.721Z,18.30
2019-05-20T11:39:13.140Z,18.50
2019-05-20T11:41:52.724Z,18.10
2019-05-20T11:44:12.062Z,18.10
2019-05-20T11:46:40.250Z,18.50
2019-05-20T11:49:08.406Z,18.10
2019-05-20T11:51:36.624Z,18.00
2019-05-20T11:54:04.742Z,18.10
2019-05-20T11:56:32.802Z,17.90
2019-05-20T11:59:00.063Z,17.90
2019-05-20T12:01:28.310Z,17.80
2019-05-20T12:03:56.272Z,18.20
2019-05-20T12:06:24.315Z,18.50
2019-05-20T12:08:52.391Z,18.30
2019-05-20T12:11:20.748Z,18.10
2019-05-20T12:13:47.747Z,18.20
2019-05-20T12:16:16.123Z,18.10
2019-05-20T12:18:45.191Z,18.20
2019-05-20T12:21:13.363Z,18.30
2019-05-20T12:23:41.512Z,18.20
2019-05-20T12:26:09.900Z,18.40
2019-05-20T12:28:37.839Z,18.50
2019-05-20T12:31:05.907Z,18.70
2019-05-20T12:33:34.147Z,18.70
2019-05-20T12:36:02.897Z,18.50
2019-05-20T12:38:31.288Z,18.40
2019-05-20T12:40:59.991Z,18.30
2019-05-20T12:43:28.253Z,18.30
2019-05-20T12:45:56.963Z,18.30
2019-05-20T12:48:24.558Z,18.40
2019-05-20T12:50:52.608Z,18.30
2019-05-20T12:53:20.885Z,18.50
2019-05-20T12:55:49.786Z,18.50
2019-05-20T12:58:17.939Z,18.30
2019-05-20T13:00:45.938Z,18.50
2019-05-20T13:03:14.214Z,18.30
2019-05-20T13:05:42.380Z,18.50
2019-05-20T13:08:11.009Z,18.40
2019-05-20T13:10:38.599Z,18.40
2019-05-20T13:13:07.153Z,18.40
2019-05-20T13:15:35.557Z,18.20
2019-05-20T13:18:03.967Z,18.20
2019-05-20T13:20:32.483Z,18.30
2019-05-20T13:22:59.614Z,18.30
2019-05-20T13:25:27.939Z,18.30
2019-05-20T13:27:56.254Z,18.40
2019-05-20T13:30:24.785Z,18.40
2019-05-20T13:32:53.444Z,18.70
2019-05-20T13:35:21.884Z,18.50
2019-05-20T13:37:50.311Z,18.60
2019-05-20T13:40:18.943Z,18.50
2019-05-20T13:42:45.970Z,18.40
2019-05-20T13:45:14.259Z,18.20
2019-05-20T13:47:42.559Z,18.20
2019-05-20T13:50:11.393Z,18.20
2019-05-20T13:52:39.688Z,18.60
2019-05-20T13:55:08.759Z,18.90
2019-05-20T13:57:38.047Z,18.70
2019-05-20T14:00:07.007Z,18.90
2019-05-20T14:02:36.283Z,18.50
2019-05-20T14:05:04.843Z,18.30
2019-05-20T14:07:32.318Z,18.30
2019-05-20T14:09:59.663Z,18.20
2019-05-20T14:12:28.593Z,17.80
2019-05-20T14:14:57.261Z,17.70
2019-05-20T14:17:25.198Z,17.90
2019-05-20T14:19:54.516Z,18.00
2019-05-20T14:22:21.505Z,18.30
2019-05-20T14:24:49.862Z,18.20
2019-05-20T14:27:18.403Z,18.00
2019-05-20T14:29:47.091Z,18.20
2019-05-20T14:32:15.392Z,18.20
2019-05-20T14:34:43.606Z,18.00
2019-05-20T14:37:11.813Z,18.20
2019-05-20T14:39:40.412Z,18.00
2019-05-20T14:42:09.290Z,18.40
2019-05-20T14:44:37.115Z,18.20
2019-05-20T14:47:05.163Z,18.20
2019-05-20T14:49:33.684Z,18.50
2019-05-20T14:52:02.105Z,18.20
2019-05-20T14:54:30.160Z,18.50
2019-05-20T14:56:58.687Z,18.20
2019-05-20T14:59:25.690Z,18.30
2019-05-20T15:01:54.228Z,18.50
2019-05-20T15:04:23.017Z,18.50
2019-05-20T15:06:52.102Z,18.20
2019-05-20T15:09:19.804Z,18.40
2019-05-20T15:11:49.176Z,17.90
2019-05-20T15:14:16.802Z,18.20
2019-05-20T15:16:45.372Z,18.20
2019-05-20T15:19:13.750Z,18.50
2019-05-20T15:21:41.544Z,18.40
2019-05-20T15:24:10.659Z,18.30
2019-05-20T15:26:40.188Z,18.20
2019-05-20T15:29:07.890Z,18.30
2019-05-20T15:31:36.462Z,18.40
2019-05-20T15:34:05.171Z,18.40
2019-05-20T15:36:33.516Z,18.20
2019-05-20T15:39:01.924Z,18.00
2019-05-20T15:41:30.502Z,18.10
2019-05-20T15:43:59.193Z,18.10
2019-05-20T15:46:28.136Z,18.20
2019-05-20T15:48:55.080Z,18.20
2019-05-20T15:51:23.294Z,18.40
2019-05-20T15:53:51.759Z,18.10
2019-05-20T15:56:20.351Z,18.10
2019-05-20T15:58:49.443Z,18.10
2019-05-20T16:01:17.892Z,18.20
2019-05-20T16:03:46.566Z,18.00
2019-05-20T16:06:15.112Z,18.30
2019-05-20T16:08:42.510Z,18.10
2019-05-20T16:11:10.555Z,18.00
2019-05-20T16:16:16.752Z,18.00
2019-05-20T16:18:44.580Z,18.00
2019-05-20T16:21:22.435Z,17.90
2019-05-20T16:23:51.106Z,17.80
2019-05-20T16:26:18.690Z,17.70
2019-05-20T16:28:46.321Z,17.70
2019-05-20T16:31:13.814Z,17.80
2019-05-20T16:33:41.031Z,17.80
2019-05-20T16:36:08.087Z,17.90
2019-05-20T16:38:35.628Z,18.00
2019-05-20T16:41:02.797Z,17.90
2019-05-20T16:43:30.252Z,17.60
2019-05-20T16:45:57.851Z,17.90
2019-05-20T16:48:25.008Z,17.90
2019-05-20T16:50:52.912Z,18.20
2019-05-20T16:53:20.506Z,17.90
2019-05-20T16:55:47.912Z,17.70
2019-05-20T16:58:15.204Z,17.80
2019-05-20T17:00:42.571Z,17.60
2019-05-20T17:03:09.997Z,17.70
2019-05-20T17:05:38.882Z,17.70
2019-05-20T17:08:07.602Z,17.70
2019-05-20T17:10:36.009Z,17.70
2019-05-20T17:13:04.258Z,17.70
2019-05-20T17:15:32.675Z,17.70
2019-05-20T17:18:01.391Z,17.70
2019-05-20T17:20:30.111Z,17.70
2019-05-20T17:22:58.804Z,17.40
2019-05-20T17:25:27.228Z,17.40
2019-05-20T17:27:55.390Z,17.40
2019-05-20T17:30:22.797Z,17.40
2019-05-20T17:32:51.156Z,17.40
2019-05-20T17:35:19.884Z,17.40
2019-05-20T17:37:48.504Z,17.50
2019-05-20T17:40:18.310Z,17.50
2019-05-20T17:42:46.710Z,17.50
2019-05-20T17:45:15.909Z,17.50
2019-05-20T17:47:44.593Z,17.60
2019-05-20T17:50:14.479Z,17.50
2019-05-20T17:52:42.171Z,17.70
2019-05-20T17:55:09.642Z,17.50
2019-05-20T17:57:37.311Z,17.50
2019-05-20T18:00:07.363Z,17.50
2019-05-20T18:02:35.770Z,17.50
2019-05-20T18:05:03.676Z,17.50
2019-05-20T18:07:31.645Z,17.60
2019-05-20T18:10:00.218Z,17.70
2019-05-20T18:12:28.950Z,17.90
2019-05-20T18:14:59.731Z,17.70
2019-05-20T18:17:28.159Z,17.80
2019-05-20T18:19:58.246Z,17.50
2019-05-20T18:22:26.897Z,17.50
2019-05-20T18:24:55.131Z,17.60
2019-05-20T18:27:23.923Z,17.60
2019-05-20T18:29:52.541Z,17.70
2019-05-20T18:32:19.732Z,17.80
2019-05-20T18:34:47.966Z,17.70
2019-05-20T18:37:16.423Z,17.90
2019-05-20T18:39:44.980Z,17.60
2019-05-20T18:42:13.291Z,17.70
2019-05-20T18:44:41.358Z,17.60
2019-05-20T18:47:09.669Z,17.80
2019-05-20T18:49:49.131Z,17.60
2019-05-20T18:52:16.311Z,17.80
2019-05-20T18:54:43.359Z,18.10
2019-05-20T18:57:11.935Z,17.70
2019-05-20T18:59:40.430Z,17.70
2019-05-20T19:02:08.850Z,17.70
2019-05-20T19:04:37.241Z,17.70
2019-05-20T19:07:05.906Z,17.70
2019-05-20T19:09:34.431Z,17.50
2019-05-20T19:12:02.944Z,17.40
2019-05-20T19:14:31.310Z,17.30
2019-05-20T19:17:00.337Z,17.30
2019-05-20T19:19:27.838Z,17.40
2019-05-20T19:21:56.330Z,17.30
2019-05-20T19:24:25.221Z,17.20
2019-05-20T19:26:52.615Z,17.10
2019-05-20T19:29:21.063Z,17.00
2019-05-20T19:32:01.034Z,17.20
2019-05-20T19:34:20.145Z,17.00
2019-05-20T19:36:48.643Z,16.90
2019-05-20T19:39:17.195Z,17.00
2019-05-20T19:41:45.441Z,17.00
2019-05-20T19:44:14.012Z,17.00
2019-05-20T19:46:43.027Z,17.40
2019-05-20T19:49:11.837Z,17.10
2019-05-20T19:51:38.978Z,17.10
2019-05-20T19:54:07.242Z,17.10
2019-05-20T19:56:35.433Z,17.10
2019-05-20T19:59:03.660Z,17.10
2019-05-20T20:01:31.958Z,17.10
2019-05-20T20:04:00.076Z,17.00
2019-05-20T20:06:28.670Z,16.70
2019-05-20T20:08:56.769Z,16.90
2019-05-20T20:11:25.293Z,17.00
2019-05-20T20:13:52.255Z,17.00
2019-05-20T20:16:20.711Z,17.00
2019-05-20T20:18:48.925Z,17.00
2019-05-20T20:21:17.518Z,17.20
2019-05-20T20:23:45.822Z,17.10
2019-05-20T20:26:14.374Z,16.90
2019-05-20T20:28:42.767Z,16.90
2019-05-20T20:31:11.205Z,16.80
2019-05-20T20:33:39.525Z,16.80
2019-05-20T20:36:07.666Z,16.90
2019-05-20T20:38:35.718Z,16.90
2019-05-20T20:41:03.683Z,17.30
2019-05-20T20:43:32.308Z,16.90
2019-05-20T20:46:00.894Z,17.00
2019-05-20T20:48:29.254Z,17.40
2019-05-20T20:50:57.666Z,17.10
2019-05-20T20:53:25.121Z,16.90
2019-05-20T20:55:53.280Z,16.80
2019-05-20T20:58:21.630Z,16.80
2019-05-20T21:00:50.087Z,16.70
2019-05-20T21:03:18.501Z,16.60
2019-05-20T21:05:46.816Z,16.60
2019-05-20T21:08:14.422Z,16.80
2019-05-20T21:10:42.980Z,16.70
2019-05-20T21:13:11.056Z,16.60
2019-05-20T21:15:42.151Z,16.40
2019-05-20T21:18:10.407Z,16.30
2019-05-20T21:20:40.184Z,16.70
2019-05-20T21:23:08.857Z,16.70
2019-05-20T21:25:37.473Z,16.70
2019-05-20T21:28:06.213Z,16.80
2019-05-20T21:30:35.477Z,16.80
2019-05-20T21:33:09.149Z,16.70
2019-05-20T21:35:33.627Z,16.70
2019-05-20T21:38:02.307Z,16.60
2019-05-20T21:40:30.427Z,16.70
2019-05-20T21:42:59.062Z,17.00
2019-05-20T21:45:28.035Z,16.60
2019-05-20T21:47:55.783Z,16.50
2019-05-20T21:50:24.191Z,16.50
2019-05-20T21:52:52.883Z,16.50
2019-05-20T21:55:21.563Z,16.30
2019-05-20T21:57:50.122Z,16.30
2019-05-20T22:00:24.248Z,16.40
2019-05-20T22:02:52.569Z,16.70
2019-05-20T22:05:20.645Z,16.40
2019-05-20T22:07:49.274Z,16.30
2019-05-20T22:10:17.567Z,16.40
2019-05-20T22:12:45.774Z,16.50
2019-05-20T22:15:14.262Z,16.40
2019-05-20T22:17:42.855Z,16.40
2019-05-20T22:20:13.056Z,16.30
2019-05-20T22:22:45.921Z,16.30
2019-05-20T22:25:14.695Z,16.30
2019-05-20T22:27:43.255Z,16.20
2019-05-20T22:30:11.863Z,16.40
2019-05-20T22:32:40.560Z,16.30
2019-05-20T22:35:09.567Z,16.30
2019-05-20T22:37:36.536Z,16.20
2019-05-20T22:40:06.153Z,16.40
2019-05-20T22:42:33.863Z,16.10
2019-05-20T22:45:02.208Z,16.60
2019-05-20T22:47:29.643Z,16.00
2019-05-20T22:49:57.835Z,16.40
2019-05-20T22:52:26.226Z,16.00
2019-05-20T22:54:54.765Z,16.10
2019-05-20T22:57:22.816Z,16.00
2019-05-20T22:59:50.885Z,16.10
2019-05-20T23:02:19.441Z,16.20
2019-05-20T23:04:47.896Z,16.30
2019-05-20T23:07:15.870Z,16.30
2019-05-20T23:09:44.226Z,16.10
2019-05-20T23:12:12.290Z,16.20
2019-05-20T23:14:41.527Z,16.20
2019-05-20T23:17:09.588Z,16.00
2019-05-20T23:19:36.549Z,15.90
2019-05-20T23:22:04.930Z,16.10
2019-05-20T23:24:33.239Z,16.00
2019-05-20T23:27:01.324Z,15.90
2019-05-20T23:29:29.503Z,15.90
2019-05-20T23:31:57.860Z,15.90
2019-05-20T23:34:26.263Z,15.50
2019-05-20T23:36:53.600Z,15.60
2019-05-20T23:39:21.687Z,15.40
2019-05-20T23:41:49.827Z,15.40
2019-05-20T23:44:17.979Z,15.30
2019-05-20T23:46:45.156Z,15.20
2019-05-20T23:49:13.565Z,15.20
2019-05-20T23:51:41.611Z,15.20
2019-05-20T23:54:09.987Z,15.20
2019-05-20T23:56:37.050Z,15.30
2019-05-20T23:59:05.415Z,15.10
